createdAt,value
2018-05-11T00:02:27.925Z,99261.19
2018-05-11T00:04:56.196Z,99263.09
2018-05-11T00:07:24.808Z,99259.50
2018-05-11T00:09:53.806Z,99258.30
2018-05-11T00:12:22.174Z,99266.89
2018-05-11T00:14:50.431Z,99254.70
2018-05-11T00:17:18.795Z,99260.78
2018-05-11T00:19:47.125Z,99259.02
2018-05-11T00:22:15.386Z,99261.58
2018-05-11T00:24:43.723Z,99258.51
2018-05-11T00:27:12.033Z,99257.50
2018-05-11T00:29:40.298Z,99255.55
2018-05-11T00:32:08.565Z,99256.60
2018-05-11T00:34:37.130Z,99263.70
2018-05-11T00:37:05.448Z,99263.02
2018-05-11T00:39:33.717Z,99261.16
2018-05-11T00:42:02.000Z,99257.98
2018-05-11T00:44:30.285Z,99261.56
2018-05-11T00:46:58.851Z,99262.64
2018-05-11T00:49:27.331Z,99260.34
2018-05-11T00:51:55.643Z,99261.64
2018-05-11T00:54:23.990Z,99250.66
2018-05-11T00:56:52.264Z,99262.30
2018-05-11T00:59:20.543Z,99249.92
2018-05-11T01:01:48.819Z,99243.48
2018-05-11T01:04:17.098Z,99254.91
2018-05-11T01:06:45.424Z,99257.59
2018-05-11T01:09:13.693Z,99252.42
2018-05-11T01:11:41.998Z,99259.21
2018-05-11T01:14:10.257Z,99254.55
2018-05-11T01:16:38.816Z,99254.27
2018-05-11T01:19:07.074Z,99250.17
2018-05-11T01:21:35.668Z,99252.08
2018-05-11T01:24:03.935Z,99254.09
2018-05-11T01:26:32.230Z,99249.55
2018-05-11T01:29:00.553Z,99256.70
2018-05-11T01:31:28.980Z,99258.02
2018-05-11T01:33:57.146Z,99250.85
2018-05-11T01:36:25.421Z,99246.37
2018-05-11T01:38:53.710Z,99252.08
2018-05-11T01:41:21.986Z,99255.02
2018-05-11T01:43:50.301Z,99252.25
2018-05-11T01:46:18.561Z,99252.53
2018-05-11T01:48:46.815Z,99248.72
2018-05-11T01:51:15.123Z,99247.80
2018-05-11T01:53:43.381Z,99255.11
2018-05-11T01:56:11.659Z,99251.14
2018-05-11T01:58:39.915Z,99255.80
2018-05-11T02:01:08.236Z,99254.34
2018-05-11T02:03:36.501Z,99248.52
2018-05-11T02:06:04.802Z,99252.50
2018-05-11T02:08:33.976Z,99257.41
2018-05-11T02:11:02.231Z,99249.20
2018-05-11T02:13:30.510Z,99247.10
2018-05-11T02:15:58.770Z,99250.14
2018-05-11T02:18:27.051Z,99252.39
2018-05-11T02:20:55.345Z,99250.82
2018-05-11T02:23:23.617Z,99250.81
2018-05-11T02:25:51.900Z,99252.14
2018-05-11T02:28:20.249Z,99247.77
2018-05-11T02:30:48.506Z,99254.93
2018-05-11T02:33:16.787Z,99253.07
2018-05-11T02:35:45.085Z,99248.83
2018-05-11T02:38:13.406Z,99248.43
2018-05-11T02:40:41.666Z,99255.98
2018-05-11T02:43:09.934Z,99247.13
2018-05-11T02:45:38.195Z,99257.83
2018-05-11T02:48:06.477Z,99242.44
2018-05-11T02:50:34.804Z,99254.61
2018-05-11T02:53:03.147Z,99259.93
2018-05-11T02:55:31.546Z,99257.94
2018-05-11T02:57:59.878Z,99258.98
2018-05-11T03:00:28.186Z,99253.70
2018-05-11T03:02:56.451Z,99257.12
2018-05-11T03:05:24.726Z,99253.41
2018-05-11T03:07:52.996Z,99262.30
2018-05-11T03:10:21.350Z,99261.75
2018-05-11T03:12:53.855Z,99259.50
2018-05-11T03:15:22.167Z,99259.90
2018-05-11T03:17:51.146Z,99269.98
2018-05-11T03:20:19.448Z,99270.30
2018-05-11T03:22:47.718Z,99273.20
2018-05-11T03:25:16.090Z,99264.49
2018-05-11T03:27:45.416Z,99268.61
2018-05-11T03:30:13.903Z,99272.05
2018-05-11T03:32:42.975Z,99266.88
2018-05-11T03:35:11.226Z,99277.58
2018-05-11T03:37:39.503Z,99272.95
2018-05-11T03:40:07.815Z,99273.73
2018-05-11T03:42:36.134Z,99276.39
2018-05-11T03:45:04.957Z,99276.91
2018-05-11T03:47:33.290Z,99284.44
2018-05-11T03:50:01.597Z,99281.39
2018-05-11T03:52:29.873Z,99281.77
2018-05-11T03:54:58.162Z,99283.11
2018-05-11T03:57:26.541Z,99278.98
2018-05-11T03:59:54.926Z,99277.43
2018-05-11T04:02:35.105Z,99278.50
2018-05-11T04:05:16.406Z,99285.34
2018-05-11T04:07:56.449Z,99277.70
2018-05-11T04:10:24.701Z,99284.16
2018-05-11T04:12:53.333Z,99273.84
2018-05-11T04:15:21.620Z,99273.95
2018-05-11T04:17:51.139Z,99274.04
2018-05-11T04:20:19.418Z,99276.59
2018-05-11T04:22:47.694Z,99275.02
2018-05-11T04:25:15.966Z,99276.34
2018-05-11T04:27:44.251Z,99281.09
2018-05-11T04:30:12.906Z,99281.09
2018-05-11T04:32:41.339Z,99282.59
2018-05-11T04:35:09.592Z,99289.11
2018-05-11T04:37:37.833Z,99290.52
2018-05-11T04:40:06.596Z,99291.55
2018-05-11T04:42:34.843Z,99294.23
2018-05-11T04:45:03.152Z,99301.82
2018-05-11T04:47:31.485Z,99304.09
2018-05-11T04:49:59.798Z,99303.71
2018-05-11T04:52:28.071Z,99306.77
2018-05-11T04:54:56.356Z,99311.81
2018-05-11T04:57:24.602Z,99305.85
2018-05-11T04:59:52.896Z,99305.98
2018-05-11T05:02:21.164Z,99308.77
2018-05-11T05:04:49.502Z,99306.38
2018-05-11T05:07:18.093Z,99307.30
2018-05-11T05:09:46.396Z,99306.52
2018-05-11T05:12:14.655Z,99305.03
2018-05-11T05:14:43.031Z,99306.91
2018-05-11T05:17:11.294Z,99292.61
2018-05-11T05:19:39.632Z,99303.33
2018-05-11T05:22:07.919Z,99303.73
2018-05-11T05:24:36.182Z,99301.03
2018-05-11T05:27:04.534Z,99307.53
2018-05-11T05:29:32.774Z,99304.34
2018-05-11T05:32:01.068Z,99305.27
2018-05-11T05:34:29.480Z,99305.70
2018-05-11T05:36:57.761Z,99298.91
2018-05-11T05:39:26.034Z,99304.19
2018-05-11T05:41:54.301Z,99310.95
2018-05-11T05:44:22.598Z,99312.07
2018-05-11T05:46:50.867Z,99307.45
2018-05-11T05:49:19.371Z,99305.34
2018-05-11T05:51:47.670Z,99308.52
2018-05-11T05:54:15.901Z,99306.41
2018-05-11T05:56:44.254Z,99301.11
2018-05-11T05:59:12.578Z,99297.58
2018-05-11T06:01:40.875Z,99298.13
2018-05-11T06:04:09.923Z,99298.93
2018-05-11T06:06:38.209Z,99299.69
2018-05-11T06:09:06.700Z,99297.19
2018-05-11T06:11:35.079Z,99301.69
2018-05-11T06:14:03.343Z,99299.05
2018-05-11T06:16:31.763Z,99303.92
2018-05-11T06:19:00.027Z,99307.51
2018-05-11T06:21:28.277Z,99311.45
2018-05-11T06:23:56.678Z,99306.23
2018-05-11T06:26:24.950Z,99314.20
2018-05-11T06:28:53.223Z,99309.53
2018-05-11T06:31:21.491Z,99301.45
2018-05-11T06:33:49.769Z,99298.13
2018-05-11T06:36:18.084Z,99298.39
2018-05-11T06:38:46.382Z,99303.30
2018-05-11T06:41:14.650Z,99276.46
2018-05-11T06:43:42.933Z,99300.14
2018-05-11T06:46:11.220Z,99307.23
2018-05-11T06:48:39.547Z,99300.53
2018-05-11T06:51:07.806Z,99293.05
2018-05-11T06:53:36.192Z,99279.97
2018-05-11T06:56:04.463Z,99298.69
2018-05-11T06:58:32.783Z,99295.46
2018-05-11T07:01:01.034Z,99290.16
2018-05-11T07:03:29.368Z,99289.41
2018-05-11T07:05:57.743Z,99291.59
2018-05-11T07:08:27.007Z,99275.42
2018-05-11T07:10:55.275Z,99279.14
2018-05-11T07:13:23.795Z,99271.17
2018-05-11T07:15:52.080Z,99262.37
2018-05-11T07:18:20.358Z,99263.94
2018-05-11T07:20:48.686Z,99251.59
2018-05-11T07:23:16.973Z,99264.02
2018-05-11T07:25:45.388Z,99260.17
2018-05-11T07:28:13.606Z,99258.12
2018-05-11T07:30:41.947Z,99254.59
2018-05-11T07:33:10.211Z,99249.88
2018-05-11T07:35:39.448Z,99241.42
2018-05-11T07:38:07.745Z,99248.96
2018-05-11T07:40:36.133Z,99244.50
2018-05-11T07:43:04.583Z,99246.66
2018-05-11T07:45:32.970Z,99245.70
2018-05-11T07:48:01.279Z,99246.06
2018-05-11T07:50:29.666Z,99240.22
2018-05-11T07:52:57.934Z,99239.59
2018-05-11T07:55:26.243Z,99237.64
2018-05-11T07:57:54.574Z,99234.45
2018-05-11T08:00:22.876Z,99234.14
2018-05-11T08:02:51.252Z,99234.91
2018-05-11T08:05:19.490Z,99235.60
2018-05-11T08:07:47.857Z,99235.25
2018-05-11T08:10:16.151Z,99239.83
2018-05-11T08:12:44.463Z,99234.38
2018-05-11T08:15:12.783Z,99234.62
2018-05-11T08:17:41.176Z,99218.14
2018-05-11T08:20:09.560Z,99231.48
2018-05-11T08:22:37.834Z,99229.39
2018-05-11T08:25:06.137Z,99221.88
2018-05-11T08:27:34.529Z,99236.47
2018-05-11T08:30:02.821Z,99230.86
2018-05-11T08:32:31.317Z,99220.97
2018-05-11T08:34:59.720Z,99218.91
2018-05-11T08:37:28.055Z,99215.22
2018-05-11T08:39:56.386Z,99218.09
2018-05-11T08:42:24.928Z,99209.83
2018-05-11T08:44:53.225Z,99218.16
2018-05-11T08:47:21.524Z,99217.35
2018-05-11T08:49:49.809Z,99216.25
2018-05-11T08:52:18.123Z,99215.27
2018-05-11T08:54:46.531Z,99209.93
2018-05-11T08:57:15.396Z,99196.16
2018-05-11T08:59:43.603Z,99207.20
2018-05-11T09:02:11.908Z,99198.30
2018-05-11T09:04:40.215Z,99204.72
2018-05-11T09:07:08.555Z,99196.66
2018-05-11T09:09:36.860Z,99194.16
2018-05-11T09:12:05.139Z,99194.84
2018-05-11T09:14:33.473Z,99195.92
2018-05-11T09:17:02.680Z,99198.51
2018-05-11T09:19:30.991Z,99191.71
2018-05-11T09:21:59.352Z,99196.03
2018-05-11T09:24:27.627Z,99186.21
2018-05-11T09:26:55.934Z,99189.48
2018-05-11T09:29:24.234Z,99184.91
2018-05-11T09:31:52.579Z,99181.60
2018-05-11T09:34:20.795Z,99181.77
2018-05-11T09:36:49.083Z,99176.83
2018-05-11T09:39:17.418Z,99182.68
2018-05-11T09:41:45.675Z,99181.26
2018-05-11T09:44:13.978Z,99182.51
2018-05-11T09:46:42.263Z,99180.51
2018-05-11T09:49:10.618Z,99150.67
2018-05-11T09:51:38.887Z,99159.73
2018-05-11T09:54:07.192Z,99169.50
2018-05-11T09:56:35.505Z,99164.73
2018-05-11T09:59:03.780Z,99163.97
2018-05-11T10:01:32.856Z,99172.23
2018-05-11T10:04:01.193Z,99166.26
2018-05-11T10:06:29.679Z,99163.25
2018-05-11T10:08:57.955Z,99164.68
2018-05-11T10:11:26.409Z,99162.22
2018-05-11T10:13:56.474Z,99159.53
2018-05-11T10:16:25.862Z,99151.14
2018-05-11T10:18:54.328Z,99159.45
2018-05-11T10:21:22.643Z,99160.38
2018-05-11T10:23:51.084Z,99163.69
2018-05-11T10:26:19.896Z,99160.61
2018-05-11T10:28:48.172Z,99162.37
2018-05-11T10:31:16.544Z,99155.27
2018-05-11T10:33:44.808Z,99159.55
2018-05-11T10:36:13.155Z,99148.09
2018-05-11T10:38:41.414Z,99147.80
2018-05-11T10:41:09.696Z,99147.45
2018-05-11T10:43:37.999Z,99137.17
2018-05-11T10:46:07.885Z,99136.02
2018-05-11T10:48:37.889Z,99118.55
2018-05-11T10:51:07.009Z,99135.97
2018-05-11T10:53:35.374Z,99124.91
2018-05-11T10:56:04.486Z,99134.43
2018-05-11T10:58:32.783Z,99132.78
2018-05-11T11:01:01.087Z,99127.58
2018-05-11T11:03:29.507Z,99125.73
2018-05-11T11:05:57.921Z,99114.77
2018-05-11T11:08:26.228Z,99119.25
2018-05-11T11:10:54.501Z,99116.34
2018-05-11T11:13:22.817Z,99109.75
2018-05-11T11:15:51.073Z,99102.70
2018-05-11T11:18:19.378Z,99104.80
2018-05-11T11:20:47.716Z,99099.89
2018-05-11T11:23:16.073Z,99100.92
2018-05-11T11:25:44.345Z,99099.39
2018-05-11T11:28:12.651Z,99102.48
2018-05-11T11:30:40.930Z,99100.87
2018-05-11T11:33:10.096Z,99099.22
2018-05-11T11:35:38.394Z,99089.87
2018-05-11T11:38:06.682Z,99088.02
2018-05-11T11:40:34.960Z,99090.34
2018-05-11T11:43:03.279Z,99067.27
2018-05-11T11:45:31.561Z,99082.54
2018-05-11T11:47:59.831Z,99077.95
2018-05-11T11:50:28.186Z,99069.63
2018-05-11T11:52:56.459Z,99065.58
2018-05-11T11:55:24.714Z,99066.30
2018-05-11T11:57:53.177Z,99061.63
2018-05-11T12:00:21.480Z,99053.27
2018-05-11T12:02:49.827Z,99065.05
2018-05-11T12:05:18.192Z,99052.05
2018-05-11T12:07:46.455Z,99050.55
2018-05-11T12:10:14.876Z,99057.86
2018-05-11T12:12:43.163Z,99038.28
2018-05-11T12:15:11.478Z,99041.80
2018-05-11T12:17:39.750Z,99038.48
2018-05-11T12:20:08.096Z,99025.05
2018-05-11T12:22:36.426Z,99041.33
2018-05-11T12:25:04.855Z,99044.39
2018-05-11T12:27:33.183Z,99037.68
2018-05-11T12:30:02.950Z,99041.80
2018-05-11T12:32:31.229Z,99047.16
2018-05-11T12:34:59.570Z,99041.69
2018-05-11T12:37:27.775Z,99038.37
2018-05-11T12:39:56.075Z,99032.64
2018-05-11T12:42:25.877Z,99035.67
2018-05-11T12:44:54.237Z,99039.81
2018-05-11T12:47:23.430Z,99040.05
2018-05-11T12:49:51.930Z,99027.89
2018-05-11T12:52:20.210Z,99030.39
2018-05-11T12:54:48.505Z,99023.90
2018-05-11T12:57:16.841Z,99023.19
2018-05-11T12:59:45.828Z,99018.67
2018-05-11T13:02:14.134Z,99011.23
2018-05-11T13:04:42.420Z,99014.54
2018-05-11T13:07:10.770Z,99017.86
2018-05-11T13:09:39.038Z,99011.02
2018-05-11T13:12:07.355Z,99007.17
2018-05-11T13:14:35.646Z,99013.39
2018-05-11T13:17:03.945Z,99014.33
2018-05-11T13:19:32.206Z,99012.76
2018-05-11T13:22:00.527Z,99011.19
2018-05-11T13:24:28.840Z,99010.43
2018-05-11T13:26:57.139Z,98999.05
2018-05-11T13:29:25.486Z,98999.62
2018-05-11T13:31:53.826Z,99001.20
2018-05-11T13:34:22.118Z,98994.81
2018-05-11T13:36:50.481Z,98995.87
2018-05-11T13:39:18.829Z,99000.17
2018-05-11T13:41:47.117Z,98999.78
2018-05-11T13:44:15.375Z,98995.20
2018-05-11T13:46:43.675Z,98995.53
2018-05-11T13:49:12.336Z,98993.98
2018-05-11T13:51:40.628Z,98989.01
2018-05-11T13:54:08.923Z,98986.98
2018-05-11T13:56:39.570Z,98986.86
2018-05-11T13:59:09.657Z,98981.02
2018-05-11T14:01:37.909Z,98979.54
2018-05-11T14:04:06.282Z,98972.22
2018-05-11T14:06:34.639Z,98972.02
2018-05-11T14:09:02.934Z,98980.19
2018-05-11T14:11:31.198Z,98977.06
2018-05-11T14:13:59.482Z,98971.46
2018-05-11T14:16:27.755Z,98971.63
2018-05-11T14:18:56.370Z,98966.34
2018-05-11T14:21:24.719Z,98970.91
2018-05-11T14:23:53.063Z,98965.95
2018-05-11T14:26:21.298Z,98969.23
2018-05-11T14:28:49.628Z,98972.06
2018-05-11T14:31:18.739Z,98967.13
2018-05-11T14:33:47.014Z,98964.16
2018-05-11T14:36:15.282Z,98963.09
2018-05-11T14:38:43.581Z,98961.50
2018-05-11T14:41:11.841Z,98958.17
2018-05-11T14:43:40.130Z,98952.59
2018-05-11T14:46:08.439Z,98954.17
2018-05-11T14:48:36.702Z,98954.04
2018-05-11T14:51:05.026Z,98950.30
2018-05-11T14:53:33.287Z,98950.77
2018-05-11T14:56:01.583Z,98948.77
2018-05-11T14:58:29.858Z,98948.22
2018-05-11T15:00:58.141Z,98945.70
2018-05-11T15:03:26.424Z,98944.45
2018-05-11T15:05:54.707Z,98944.16
2018-05-11T15:08:22.982Z,98939.50
2018-05-11T15:10:52.007Z,98942.56
2018-05-11T15:13:20.294Z,98944.17
2018-05-11T15:15:48.590Z,98944.98
2018-05-11T15:18:16.850Z,98942.85
2018-05-11T15:20:45.138Z,98938.94
2018-05-11T15:23:14.308Z,98946.25
2018-05-11T15:25:43.725Z,98940.45
2018-05-11T15:28:12.002Z,98930.41
2018-05-11T15:30:40.355Z,98931.86
2018-05-11T15:33:08.626Z,98930.94
2018-05-11T15:35:36.921Z,98925.93
2018-05-11T15:38:05.188Z,98929.06
2018-05-11T15:40:33.613Z,98919.75
2018-05-11T15:43:02.448Z,98923.55
2018-05-11T15:45:30.738Z,98927.31
2018-05-11T15:47:59.013Z,98913.28
2018-05-11T15:50:27.919Z,98919.09
2018-05-11T15:52:56.376Z,98904.84
2018-05-11T15:55:25.469Z,98919.67
2018-05-11T15:57:53.847Z,98912.71
2018-05-11T16:00:22.958Z,98910.20
2018-05-11T16:02:51.269Z,98905.53
2018-05-11T16:05:19.542Z,98909.15
2018-05-11T16:07:47.855Z,98912.30
2018-05-11T16:10:16.137Z,98907.81
2018-05-11T16:12:44.568Z,98896.50
2018-05-11T16:15:12.718Z,98908.67
2018-05-11T16:17:41.047Z,98903.73
2018-05-11T16:20:09.347Z,98910.47
2018-05-11T16:22:37.651Z,98906.89
2018-05-11T16:25:05.945Z,98899.50
2018-05-11T16:27:35.086Z,98895.98
2018-05-11T16:30:03.370Z,98901.94
2018-05-11T16:32:31.683Z,98900.36
2018-05-11T16:34:59.993Z,98900.55
2018-05-11T16:37:28.306Z,98899.78
2018-05-11T16:39:56.597Z,98894.55
2018-05-11T16:42:24.886Z,98895.86
2018-05-11T16:44:53.231Z,98881.12
2018-05-11T16:47:21.486Z,98882.05
2018-05-11T16:49:49.812Z,98886.52
2018-05-11T16:52:18.870Z,98876.25
2018-05-11T16:54:47.212Z,98878.07
2018-05-11T16:57:15.510Z,98878.69
2018-05-11T16:59:44.215Z,98869.02
2018-05-11T17:02:12.489Z,98875.23
2018-05-11T17:04:40.765Z,98876.49
2018-05-11T17:07:09.036Z,98847.06
2018-05-11T17:09:37.327Z,98873.43
2018-05-11T17:12:05.583Z,98872.10
2018-05-11T17:14:34.605Z,98871.97
2018-05-11T17:17:03.187Z,98871.09
2018-05-11T17:19:31.485Z,98862.83
2018-05-11T17:21:59.841Z,98863.82
2018-05-11T17:24:28.200Z,98863.63
2018-05-11T17:26:56.656Z,98866.33
2018-05-11T17:29:25.009Z,98861.98
2018-05-11T17:31:53.300Z,98859.38
2018-05-11T17:34:21.831Z,98864.30
2018-05-11T17:36:50.147Z,98869.30
2018-05-11T17:39:18.970Z,98867.68
2018-05-11T17:41:47.547Z,98826.02
2018-05-11T17:44:15.857Z,98865.88
2018-05-11T17:46:44.172Z,98872.38
2018-05-11T17:49:12.430Z,98871.91
2018-05-11T17:51:40.782Z,98872.94
2018-05-11T17:54:09.039Z,98856.97
2018-05-11T17:56:37.334Z,98864.20
2018-05-11T17:59:05.592Z,98862.23
2018-05-11T18:01:35.629Z,98865.59
2018-05-11T18:04:03.919Z,98870.26
2018-05-11T18:06:32.305Z,98870.38
2018-05-11T18:09:00.535Z,98876.03
2018-05-11T18:11:28.827Z,98880.98
2018-05-11T18:13:57.083Z,98876.11
2018-05-11T18:16:25.423Z,98877.49
2018-05-11T18:18:53.713Z,98886.28
2018-05-11T18:21:21.982Z,98881.09
2018-05-11T18:23:50.261Z,98879.44
2018-05-11T18:26:18.549Z,98884.58
2018-05-11T18:28:46.847Z,98882.90
2018-05-11T18:31:15.114Z,98884.19
2018-05-11T18:33:43.394Z,98884.80
2018-05-11T18:36:11.697Z,98885.58
2018-05-11T18:38:40.004Z,98888.89
2018-05-11T18:41:08.295Z,98886.23
2018-05-11T18:43:36.580Z,98883.03
2018-05-11T18:46:04.894Z,98890.70
2018-05-11T18:48:34.014Z,98891.56
2018-05-11T18:51:02.308Z,98890.42
2018-05-11T18:53:30.924Z,98891.52
2018-05-11T18:55:58.874Z,98897.20
2018-05-11T18:58:27.190Z,98901.72
2018-05-11T19:00:55.426Z,98903.98
2018-05-11T19:03:23.738Z,98901.23
2018-05-11T19:05:51.993Z,98907.50
2018-05-11T19:08:20.319Z,98916.67
2018-05-11T19:10:48.582Z,98917.18
2018-05-11T19:13:16.947Z,98915.82
2018-05-11T19:15:45.375Z,98924.53
2018-05-11T19:18:13.656Z,98922.70
2018-05-11T19:20:41.927Z,98921.36
2018-05-11T19:23:10.245Z,98931.42
2018-05-11T19:25:38.523Z,98931.88
2018-05-11T19:28:06.840Z,98940.73
2018-05-11T19:30:35.124Z,98935.32
2018-05-11T19:33:03.423Z,98939.34
2018-05-11T19:35:31.743Z,98936.58
2018-05-11T19:38:00.003Z,98935.95
2018-05-11T19:40:28.302Z,98937.62
2018-05-11T19:42:56.557Z,98945.72
2018-05-11T19:45:24.882Z,98945.27
2018-05-11T19:47:54.235Z,98947.25
2018-05-11T19:50:22.518Z,98946.32
2018-05-11T19:52:51.623Z,98953.75
2018-05-11T19:55:19.923Z,98948.70
2018-05-11T19:57:48.206Z,98958.47
2018-05-11T20:00:16.499Z,98959.67
2018-05-11T20:02:44.760Z,98957.77
2018-05-11T20:05:13.169Z,98958.63
2018-05-11T20:07:41.464Z,98958.95
2018-05-11T20:10:10.384Z,98959.20
2018-05-11T20:12:38.662Z,98966.31
2018-05-11T20:15:06.937Z,98962.42
2018-05-11T20:17:35.237Z,98961.70
2018-05-11T20:20:03.495Z,98966.84
2018-05-11T20:22:31.855Z,98964.20
2018-05-11T20:25:00.135Z,98973.56
2018-05-11T20:27:28.430Z,98969.34
2018-05-11T20:29:56.687Z,98977.44
2018-05-11T20:32:25.005Z,98972.22
2018-05-11T20:34:54.269Z,98978.25
2018-05-11T20:37:22.583Z,98975.72
2018-05-11T20:39:50.857Z,98939.56
2018-05-11T20:42:19.209Z,98979.13
2018-05-11T20:44:47.454Z,98979.22
2018-05-11T20:47:15.743Z,98982.75
2018-05-11T20:49:44.012Z,98985.63
2018-05-11T20:52:12.295Z,98983.09
2018-05-11T20:54:40.582Z,98975.64
2018-05-11T20:57:08.892Z,98978.48
2018-05-11T20:59:37.173Z,98984.68
2018-05-11T21:02:05.475Z,98976.84
2018-05-11T21:04:33.749Z,98980.11
2018-05-11T21:07:02.010Z,98978.98
2018-05-11T21:09:30.308Z,98976.48
2018-05-11T21:11:58.570Z,98986.91
2018-05-11T21:14:26.875Z,98987.95
2018-05-11T21:16:55.215Z,98982.64
2018-05-11T21:19:23.503Z,98988.83
2018-05-11T21:21:51.759Z,98988.31
2018-05-11T21:24:20.085Z,98985.51
2018-05-11T21:26:48.355Z,98990.28
2018-05-11T21:29:16.671Z,98996.30
2018-05-11T21:31:44.923Z,98990.86
2018-05-11T21:34:13.251Z,98988.52
2018-05-11T21:36:41.518Z,98985.45
2018-05-11T21:39:09.900Z,98987.94
2018-05-11T21:41:38.175Z,98982.42
2018-05-11T21:44:06.485Z,98975.67
2018-05-11T21:46:34.741Z,98980.24
2018-05-11T21:49:03.026Z,98982.69
2018-05-11T21:51:31.325Z,98982.87
2018-05-11T21:53:59.629Z,98980.64
2018-05-11T21:56:27.915Z,98984.45
2018-05-11T21:58:56.987Z,98976.84
2018-05-11T22:01:25.281Z,98983.46
2018-05-11T22:03:53.551Z,98986.20
2018-05-11T22:06:21.849Z,98988.44
2018-05-11T22:08:50.102Z,98983.02
2018-05-11T22:11:18.398Z,98982.41
2018-05-11T22:13:46.710Z,98986.22
2018-05-11T22:16:15.016Z,98979.55
2018-05-11T22:18:43.295Z,98970.91
2018-05-11T22:21:11.583Z,98977.33
2018-05-11T22:23:39.861Z,98982.56
2018-05-11T22:26:08.143Z,98976.64
2018-05-11T22:28:36.461Z,98975.61
2018-05-11T22:31:04.772Z,98978.06
2018-05-11T22:33:33.062Z,98976.09
2018-05-11T22:36:01.397Z,98977.66
2018-05-11T22:38:29.646Z,98978.73
2018-05-11T22:40:58.722Z,98973.42
2018-05-11T22:43:27.839Z,98978.20
2018-05-11T22:45:58.554Z,98977.02
2018-05-11T22:48:26.803Z,98978.73
2018-05-11T22:50:55.315Z,98975.75
2018-05-11T22:53:23.608Z,98979.05
2018-05-11T22:55:51.870Z,98980.31
2018-05-11T22:58:21.068Z,98974.20
2018-05-11T23:00:49.349Z,98976.42
2018-05-11T23:03:17.644Z,98974.36
2018-05-11T23:05:45.926Z,98968.27
2018-05-11T23:08:14.279Z,98972.86
2018-05-11T23:10:42.562Z,98973.36
2018-05-11T23:13:10.868Z,98978.25
2018-05-11T23:15:39.122Z,98974.92
2018-05-11T23:18:07.425Z,98975.09
2018-05-11T23:20:35.721Z,98974.43
2018-05-11T23:23:03.997Z,98964.31
2018-05-11T23:25:32.263Z,98960.80
2018-05-11T23:28:00.794Z,98958.13
2018-05-11T23:30:29.102Z,98937.12
2018-05-11T23:32:57.402Z,98954.61
2018-05-11T23:35:25.659Z,98954.41
2018-05-11T23:37:53.957Z,98948.03
2018-05-11T23:40:22.226Z,98945.77
2018-05-11T23:42:50.503Z,98945.14
2018-05-11T23:45:19.061Z,98941.44
2018-05-11T23:47:47.342Z,98943.11
2018-05-11T23:50:15.622Z,98940.05
2018-05-11T23:52:43.912Z,98943.20
2018-05-11T23:55:12.199Z,98938.88
2018-05-11T23:57:40.516Z,98931.33
